createdAt,value
2019-04-30T00:01:48.556Z,9.60
2019-04-30T00:04:18.441Z,9.50
2019-04-30T00:06:48.125Z,9.60
2019-04-30T00:09:19.390Z,9.50
2019-04-30T00:11:50.652Z,9.60
2019-04-30T00:14:20.609Z,9.60
2019-04-30T00:16:50.407Z,9.60
2019-04-30T00:19:20.106Z,9.60
2019-04-30T00:21:56.966Z,9.60
2019-04-30T00:24:21.123Z,9.60
2019-04-30T00:26:52.583Z,9.50
2019-04-30T00:29:26.950Z,9.40
2019-04-30T00:31:57.750Z,9.40
2019-04-30T00:34:25.189Z,9.40
2019-04-30T00:36:56.012Z,9.30
2019-04-30T00:39:27.310Z,9.30
2019-04-30T00:41:57.200Z,9.20
2019-04-30T00:44:28.380Z,9.10
2019-04-30T00:47:00.539Z,9.00
2019-04-30T00:49:29.713Z,8.90
2019-04-30T00:51:59.435Z,8.90
2019-04-30T00:54:30.838Z,8.80
2019-04-30T00:57:04.499Z,8.80
2019-04-30T00:59:32.049Z,8.70
2019-04-30T01:02:03.496Z,8.70
2019-04-30T01:04:35.065Z,8.60
2019-04-30T01:07:08.498Z,8.60
2019-04-30T01:09:39.661Z,8.50
2019-04-30T01:12:08.009Z,8.50
2019-04-30T01:14:38.636Z,8.50
2019-04-30T01:17:12.182Z,8.40
2019-04-30T01:19:39.698Z,8.50
2019-04-30T01:22:09.504Z,8.50
2019-04-30T01:24:39.345Z,8.40
2019-04-30T01:27:10.565Z,8.40
2019-04-30T01:29:44.079Z,8.40
2019-04-30T01:32:17.375Z,8.50
2019-04-30T01:34:44.200Z,8.50
2019-04-30T01:37:14.917Z,8.40
2019-04-30T01:39:44.868Z,8.40
2019-04-30T01:42:14.648Z,8.40
2019-04-30T01:44:50.512Z,8.50
2019-04-30T01:47:15.545Z,8.50
2019-04-30T01:49:45.236Z,8.50
2019-04-30T01:52:15.032Z,8.60
2019-04-30T01:54:44.626Z,8.60
2019-04-30T01:57:19.317Z,8.60
2019-04-30T02:00:09.762Z,8.60
2019-04-30T02:02:41.003Z,8.60
2019-04-30T02:05:10.745Z,8.70
2019-04-30T02:07:40.495Z,8.60
2019-04-30T02:10:10.620Z,8.70
2019-04-30T02:12:40.466Z,8.60
2019-04-30T02:15:10.223Z,8.60
2019-04-30T02:17:40.329Z,8.60
2019-04-30T02:20:10.716Z,8.60
2019-04-30T02:22:40.393Z,8.60
2019-04-30T02:25:11.070Z,8.60
2019-04-30T02:27:41.798Z,8.70
2019-04-30T02:30:11.919Z,8.70
2019-04-30T02:32:41.842Z,8.60
2019-04-30T02:35:20.085Z,8.60
2019-04-30T02:38:09.855Z,8.60
2019-04-30T02:40:39.343Z,8.60
2019-04-30T02:43:11.480Z,8.60
2019-04-30T02:45:43.065Z,8.50
2019-04-30T02:48:13.031Z,8.50
2019-04-30T02:50:48.999Z,8.50
2019-04-30T02:54:09.748Z,8.50
2019-04-30T02:56:41.438Z,8.50
2019-04-30T02:59:11.161Z,8.50
2019-04-30T03:01:40.904Z,8.50
2019-04-30T03:04:10.571Z,8.50
2019-04-30T03:06:40.689Z,8.50
2019-04-30T03:09:10.994Z,8.50
2019-04-30T03:11:41.151Z,8.30
2019-04-30T03:14:11.179Z,8.30
2019-04-30T03:16:46.083Z,8.40
2019-04-30T03:19:26.122Z,8.30
2019-04-30T03:21:59.991Z,8.40
2019-04-30T03:24:29.554Z,8.40
2019-04-30T03:26:59.797Z,8.40
2019-04-30T03:29:30.246Z,8.30
2019-04-30T03:32:02.522Z,8.30
2019-04-30T03:34:32.896Z,8.30
2019-04-30T03:37:02.830Z,8.30
2019-04-30T03:39:33.968Z,8.30
2019-04-30T03:42:04.009Z,8.30
2019-04-30T03:44:33.531Z,8.30
2019-04-30T03:47:03.462Z,8.30
2019-04-30T03:49:33.181Z,8.40
2019-04-30T03:52:02.883Z,8.30
2019-04-30T03:54:32.571Z,8.30
2019-04-30T03:57:02.228Z,8.20
2019-04-30T03:59:32.059Z,8.20
2019-04-30T04:02:20.794Z,8.20
2019-04-30T04:04:52.555Z,8.30
2019-04-30T04:07:40.229Z,8.30
2019-04-30T04:10:29.737Z,8.10
2019-04-30T04:12:59.702Z,8.10
2019-04-30T04:15:29.956Z,8.10
2019-04-30T04:18:00.395Z,8.10
2019-04-30T04:20:30.275Z,8.00
2019-04-30T04:22:59.983Z,8.00
2019-04-30T04:25:30.065Z,8.00
2019-04-30T04:28:00.381Z,8.00
2019-04-30T04:30:30.387Z,8.00
2019-04-30T04:33:00.207Z,8.00
2019-04-30T04:35:30.223Z,8.00
2019-04-30T04:38:00.549Z,8.00
2019-04-30T04:40:30.475Z,8.00
2019-04-30T04:43:00.428Z,8.00
2019-04-30T04:45:30.701Z,8.00
2019-04-30T04:48:00.404Z,8.00
2019-04-30T04:50:30.456Z,8.00
2019-04-30T04:53:00.167Z,8.00
2019-04-30T04:55:30.178Z,8.10
2019-04-30T04:58:00.103Z,8.00
2019-04-30T05:00:29.865Z,8.00
2019-04-30T05:03:04.124Z,8.00
2019-04-30T05:05:34.098Z,8.10
2019-04-30T05:08:03.918Z,8.10
2019-04-30T05:10:33.569Z,8.20
2019-04-30T05:13:03.394Z,8.30
2019-04-30T05:15:32.948Z,8.20
2019-04-30T05:18:02.734Z,8.10
2019-04-30T05:20:32.401Z,8.10
2019-04-30T05:23:02.197Z,8.00
2019-04-30T05:25:32.204Z,8.10
2019-04-30T05:28:02.035Z,8.20
2019-04-30T05:30:31.784Z,8.20
2019-04-30T05:33:01.474Z,8.20
2019-04-30T05:35:31.270Z,8.30
2019-04-30T05:38:00.863Z,8.40
2019-04-30T05:40:30.508Z,8.20
2019-04-30T05:43:00.461Z,8.20
2019-04-30T05:45:30.134Z,8.20
2019-04-30T05:47:59.796Z,8.20
2019-04-30T05:50:29.738Z,8.30
2019-04-30T05:52:59.344Z,8.30
2019-04-30T05:55:29.505Z,8.40
2019-04-30T05:58:01.526Z,8.40
2019-04-30T06:00:30.858Z,8.40
2019-04-30T06:03:00.501Z,8.30
2019-04-30T06:05:30.213Z,8.30
2019-04-30T06:08:00.335Z,8.40
2019-04-30T06:10:49.572Z,8.50
2019-04-30T06:13:31.943Z,8.40
2019-04-30T06:16:08.823Z,8.40
2019-04-30T06:18:38.658Z,8.60
2019-04-30T06:21:09.161Z,8.40
2019-04-30T06:23:39.395Z,8.50
2019-04-30T06:26:13.070Z,8.70
2019-04-30T06:28:41.620Z,8.70
2019-04-30T06:31:11.224Z,8.80
2019-04-30T06:33:41.253Z,8.80
2019-04-30T06:36:11.449Z,9.10
2019-04-30T06:38:41.210Z,9.00
2019-04-30T06:41:10.888Z,9.10
2019-04-30T06:43:40.639Z,8.80
2019-04-30T06:46:10.793Z,8.80
2019-04-30T06:48:41.860Z,8.90
2019-04-30T06:51:11.637Z,8.80
2019-04-30T06:53:41.282Z,8.80
2019-04-30T06:56:10.964Z,9.00
2019-04-30T06:58:41.407Z,9.00
2019-04-30T07:01:11.171Z,8.90
2019-04-30T07:03:40.796Z,8.60
2019-04-30T07:06:10.507Z,8.60
2019-04-30T07:08:46.781Z,8.70
2019-04-30T07:11:21.803Z,9.00
2019-04-30T07:13:52.246Z,9.20
2019-04-30T07:16:22.514Z,9.30
2019-04-30T07:18:52.099Z,9.30
2019-04-30T07:21:21.908Z,9.40
2019-04-30T07:23:51.673Z,10.00
2019-04-30T07:26:24.347Z,10.70
2019-04-30T07:28:55.228Z,10.40
2019-04-30T07:31:24.629Z,10.70
2019-04-30T07:33:54.297Z,10.60
2019-04-30T07:36:42.441Z,10.30
2019-04-30T07:38:56.767Z,10.20
2019-04-30T07:41:26.914Z,10.00
2019-04-30T07:43:56.541Z,10.20
2019-04-30T07:46:26.259Z,10.40
2019-04-30T07:48:55.953Z,10.30
2019-04-30T07:51:26.379Z,10.30
2019-04-30T07:53:56.553Z,10.30
2019-04-30T07:56:29.283Z,10.50
2019-04-30T07:59:00.688Z,10.60
2019-04-30T08:01:29.603Z,11.00
2019-04-30T08:04:09.676Z,11.20
2019-04-30T08:06:39.902Z,10.90
2019-04-30T08:09:11.168Z,10.90
2019-04-30T08:11:43.401Z,10.60
2019-04-30T08:14:12.459Z,10.90
2019-04-30T08:16:42.558Z,11.10
2019-04-30T08:19:12.497Z,11.60
2019-04-30T08:21:42.065Z,11.80
2019-04-30T08:24:12.007Z,11.70
2019-04-30T08:26:42.149Z,11.80
2019-04-30T08:29:11.769Z,11.60
2019-04-30T08:31:41.611Z,11.40
2019-04-30T08:34:11.455Z,11.20
2019-04-30T08:36:41.239Z,11.20
2019-04-30T08:39:11.398Z,11.10
2019-04-30T08:41:41.156Z,11.20
2019-04-30T08:44:11.004Z,11.30
2019-04-30T08:46:40.718Z,11.30
2019-04-30T08:49:10.720Z,11.40
2019-04-30T08:51:40.929Z,11.40
2019-04-30T08:54:10.917Z,11.60
2019-04-30T08:56:40.612Z,11.70
2019-04-30T08:59:11.199Z,11.60
2019-04-30T09:01:40.991Z,12.00
2019-04-30T09:04:10.682Z,12.00
2019-04-30T09:06:40.409Z,12.10
2019-04-30T09:09:11.751Z,11.80
2019-04-30T09:11:51.828Z,11.90
2019-04-30T09:14:12.974Z,11.80
2019-04-30T09:16:42.753Z,11.90
2019-04-30T09:19:12.764Z,12.20
2019-04-30T09:21:42.542Z,12.20
2019-04-30T09:24:12.227Z,12.20
2019-04-30T09:26:42.131Z,12.10
2019-04-30T09:29:11.822Z,12.20
2019-04-30T09:31:44.264Z,12.00
2019-04-30T09:34:17.671Z,12.00
2019-04-30T09:36:45.343Z,12.20
2019-04-30T09:39:15.245Z,12.30
2019-04-30T09:41:45.045Z,12.30
2019-04-30T09:44:14.739Z,12.40
2019-04-30T09:46:44.779Z,12.10
2019-04-30T09:49:14.733Z,12.30
2019-04-30T09:51:44.572Z,12.40
2019-04-30T09:54:14.709Z,12.70
2019-04-30T09:56:44.746Z,12.90
2019-04-30T09:59:14.435Z,12.80
2019-04-30T10:01:44.241Z,12.90
2019-04-30T10:04:14.327Z,12.90
2019-04-30T10:06:44.235Z,12.60
2019-04-30T10:09:15.324Z,13.00
2019-04-30T10:11:55.372Z,13.30
2019-04-30T10:14:25.054Z,13.70
2019-04-30T10:17:12.512Z,13.90
2019-04-30T10:19:42.182Z,14.80
2019-04-30T10:22:12.002Z,14.80
2019-04-30T10:24:41.825Z,14.90
2019-04-30T10:27:13.413Z,15.00
2019-04-30T10:29:43.480Z,15.20
2019-04-30T10:32:13.485Z,15.10
2019-04-30T10:34:43.196Z,15.60
2019-04-30T10:37:13.197Z,15.40
2019-04-30T10:39:43.103Z,16.20
2019-04-30T10:42:12.766Z,16.40
2019-04-30T10:44:42.424Z,15.70
2019-04-30T10:47:12.336Z,15.70
2019-04-30T10:49:42.233Z,15.50
2019-04-30T10:52:12.081Z,15.70
2019-04-30T10:54:41.826Z,16.20
2019-04-30T10:57:11.673Z,16.20
2019-04-30T10:59:41.326Z,15.60
2019-04-30T11:02:11.215Z,15.60
2019-04-30T11:04:41.178Z,15.30
2019-04-30T11:07:10.799Z,15.60
2019-04-30T11:09:40.525Z,15.40
2019-04-30T11:12:10.347Z,15.60
2019-04-30T11:14:40.193Z,15.50
2019-04-30T11:17:10.129Z,15.20
2019-04-30T11:19:40.422Z,15.10
2019-04-30T11:22:10.284Z,15.10
2019-04-30T11:24:53.811Z,15.40
2019-04-30T11:27:13.144Z,15.20
2019-04-30T11:29:43.308Z,15.30
2019-04-30T11:32:15.095Z,15.20
2019-04-30T11:34:45.015Z,14.90
2019-04-30T11:37:14.962Z,15.20
2019-04-30T11:39:44.791Z,15.50
2019-04-30T11:42:14.475Z,15.10
2019-04-30T11:44:44.385Z,15.40
2019-04-30T11:47:29.096Z,15.80
2019-04-30T11:49:58.821Z,15.80
2019-04-30T11:52:28.868Z,15.80
2019-04-30T11:54:59.734Z,15.60
2019-04-30T11:57:29.888Z,15.40
2019-04-30T11:59:59.627Z,15.30
2019-04-30T12:02:34.111Z,15.00
2019-04-30T12:05:06.746Z,15.30
2019-04-30T12:07:41.745Z,15.50
2019-04-30T12:10:19.498Z,15.50
2019-04-30T12:12:49.129Z,15.60
2019-04-30T12:15:19.315Z,15.60
2019-04-30T12:17:49.040Z,15.60
2019-04-30T12:20:19.698Z,15.80
2019-04-30T12:22:49.471Z,15.70
2019-04-30T12:25:19.155Z,15.80
2019-04-30T12:27:48.986Z,15.80
2019-04-30T12:30:20.803Z,16.20
2019-04-30T12:32:50.745Z,16.10
2019-04-30T12:35:20.708Z,15.90
2019-04-30T12:37:52.339Z,15.80
2019-04-30T12:40:28.978Z,15.90
2019-04-30T12:42:53.609Z,16.00
2019-04-30T12:45:23.546Z,16.00
2019-04-30T12:47:54.939Z,16.10
2019-04-30T12:50:26.445Z,16.30
2019-04-30T12:52:59.447Z,16.50
2019-04-30T12:55:40.651Z,16.40
2019-04-30T12:58:10.326Z,16.50
2019-04-30T13:00:40.259Z,16.50
2019-04-30T13:03:10.090Z,16.50
2019-04-30T13:05:39.944Z,16.50
2019-04-30T13:08:10.301Z,16.40
2019-04-30T13:10:40.754Z,16.80
2019-04-30T13:13:11.398Z,16.70
2019-04-30T13:15:41.472Z,16.50
2019-04-30T13:18:11.337Z,16.40
2019-04-30T13:20:41.084Z,16.50
2019-04-30T13:23:10.957Z,16.60
2019-04-30T13:25:50.670Z,16.70
2019-04-30T13:28:13.669Z,16.70
2019-04-30T13:30:43.383Z,16.60
2019-04-30T13:33:20.422Z,16.80
2019-04-30T13:35:50.544Z,17.00
2019-04-30T13:38:47.401Z,16.80
2019-04-30T13:41:09.663Z,16.70
2019-04-30T13:43:54.268Z,16.80
2019-04-30T13:46:24.661Z,16.80
2019-04-30T13:48:54.564Z,17.00
2019-04-30T13:51:24.232Z,17.20
2019-04-30T13:53:54.484Z,17.00
2019-04-30T13:56:24.217Z,17.10
2019-04-30T13:58:54.020Z,17.10
2019-04-30T14:01:23.623Z,17.10
2019-04-30T14:04:09.890Z,17.10
2019-04-30T14:06:44.165Z,17.10
2019-04-30T14:09:21.500Z,17.10
2019-04-30T14:11:51.393Z,17.10
2019-04-30T14:14:21.337Z,17.20
2019-04-30T14:16:51.495Z,17.20
2019-04-30T14:19:21.783Z,17.40
2019-04-30T14:21:52.057Z,17.40
2019-04-30T14:24:21.858Z,17.40
2019-04-30T14:26:51.622Z,17.20
2019-04-30T14:29:21.419Z,17.30
2019-04-30T14:31:51.358Z,17.30
2019-04-30T14:34:20.988Z,17.40
2019-04-30T14:36:50.960Z,17.70
2019-04-30T14:39:20.698Z,17.30
2019-04-30T14:41:52.113Z,17.50
2019-04-30T14:44:24.385Z,17.70
2019-04-30T14:46:54.994Z,17.70
2019-04-30T14:49:39.471Z,17.30
2019-04-30T14:52:09.843Z,17.10
2019-04-30T14:54:41.314Z,17.10
2019-04-30T14:57:28.776Z,17.20
2019-04-30T15:00:02.055Z,17.10
2019-04-30T15:02:35.823Z,17.10
2019-04-30T15:05:08.953Z,17.30
2019-04-30T15:07:39.683Z,17.10
2019-04-30T15:10:09.649Z,17.20
2019-04-30T15:12:39.360Z,17.20
2019-04-30T15:15:09.887Z,17.30
2019-04-30T15:17:41.279Z,17.10
2019-04-30T15:20:11.849Z,17.20
2019-04-30T15:22:43.138Z,17.30
2019-04-30T15:25:13.197Z,17.20
2019-04-30T15:27:46.702Z,17.20
2019-04-30T15:30:21.460Z,17.20
2019-04-30T15:32:49.550Z,17.20
2019-04-30T15:35:19.820Z,17.20
2019-04-30T15:37:51.174Z,17.10
2019-04-30T15:40:20.749Z,17.10
2019-04-30T15:42:52.088Z,17.00
2019-04-30T15:45:21.618Z,17.10
2019-04-30T15:47:51.383Z,17.20
2019-04-30T15:50:21.115Z,17.10
2019-04-30T15:52:50.760Z,17.20
2019-04-30T15:55:20.483Z,17.10
2019-04-30T15:57:59.362Z,17.20
2019-04-30T16:00:31.337Z,17.20
2019-04-30T16:03:02.847Z,17.10
2019-04-30T16:05:34.031Z,17.20
2019-04-30T16:08:05.440Z,17.20
2019-04-30T16:10:40.791Z,17.20
2019-04-30T16:13:15.005Z,17.10
2019-04-30T16:15:44.830Z,16.90
2019-04-30T16:18:14.699Z,17.00
2019-04-30T16:20:44.271Z,16.90
2019-04-30T16:23:14.125Z,16.80
2019-04-30T16:25:43.758Z,16.80
2019-04-30T16:28:13.630Z,17.00
2019-04-30T16:30:43.412Z,16.90
2019-04-30T16:33:13.368Z,16.80
2019-04-30T16:35:43.170Z,16.80
2019-04-30T16:38:12.854Z,16.70
2019-04-30T16:40:42.543Z,16.70
2019-04-30T16:43:12.341Z,16.70
2019-04-30T16:45:42.443Z,16.70
2019-04-30T16:48:12.228Z,16.70
2019-04-30T16:50:41.985Z,16.70
2019-04-30T16:53:11.650Z,16.70
2019-04-30T16:55:41.554Z,16.70
2019-04-30T16:58:11.201Z,16.60
2019-04-30T17:00:40.943Z,16.70
2019-04-30T17:03:12.447Z,16.60
2019-04-30T17:05:49.961Z,16.50
2019-04-30T17:08:24.515Z,16.30
2019-04-30T17:10:55.775Z,16.30
2019-04-30T17:13:28.472Z,16.30
2019-04-30T17:16:11.936Z,16.30
2019-04-30T17:18:41.797Z,16.30
2019-04-30T17:21:11.759Z,16.30
2019-04-30T17:23:41.699Z,16.30
2019-04-30T17:26:11.443Z,16.30
2019-04-30T17:28:41.083Z,16.20
2019-04-30T17:31:13.409Z,16.20
2019-04-30T17:33:42.539Z,16.20
2019-04-30T17:36:12.259Z,16.20
2019-04-30T17:38:41.862Z,16.10
2019-04-30T17:41:11.745Z,16.10
2019-04-30T17:43:41.733Z,16.00
2019-04-30T17:46:11.701Z,16.00
2019-04-30T17:48:41.744Z,15.90
2019-04-30T17:51:11.556Z,15.90
2019-04-30T17:53:43.008Z,15.90
2019-04-30T17:56:12.920Z,15.80
2019-04-30T17:58:42.674Z,15.80
2019-04-30T18:01:13.635Z,15.80
2019-04-30T18:03:43.505Z,15.70
2019-04-30T18:06:13.145Z,15.70
2019-04-30T18:08:42.918Z,15.60
2019-04-30T18:11:13.411Z,15.50
2019-04-30T18:13:43.957Z,15.50
2019-04-30T18:16:14.637Z,15.40
2019-04-30T18:18:51.202Z,15.40
2019-04-30T18:21:41.330Z,15.30
2019-04-30T18:24:21.767Z,15.20
2019-04-30T18:26:53.400Z,15.10
2019-04-30T18:29:23.684Z,14.90
2019-04-30T18:31:53.636Z,14.80
2019-04-30T18:34:23.544Z,14.80
2019-04-30T18:36:53.556Z,14.70
2019-04-30T18:39:23.757Z,14.60
2019-04-30T18:41:54.154Z,14.60
2019-04-30T18:44:24.184Z,14.50
2019-04-30T18:46:55.459Z,14.50
2019-04-30T18:49:28.735Z,14.40
2019-04-30T18:51:59.125Z,14.40
2019-04-30T18:54:29.100Z,14.30
2019-04-30T18:56:59.024Z,14.30
2019-04-30T18:59:28.822Z,14.30
2019-04-30T19:01:58.977Z,14.20
2019-04-30T19:04:28.939Z,14.10
2019-04-30T19:07:00.341Z,14.00
2019-04-30T19:09:29.950Z,14.00
2019-04-30T19:12:05.643Z,13.90
2019-04-30T19:14:35.248Z,13.90
2019-04-30T19:17:09.456Z,13.90
2019-04-30T19:19:49.786Z,13.90
2019-04-30T19:22:20.192Z,14.00
2019-04-30T19:24:56.080Z,14.10
2019-04-30T19:27:21.906Z,13.90
2019-04-30T19:29:52.019Z,13.90
2019-04-30T19:32:21.841Z,14.00
2019-04-30T19:34:51.966Z,13.90
2019-04-30T19:37:22.188Z,13.80
2019-04-30T19:39:52.070Z,13.80
2019-04-30T19:42:22.010Z,13.70
2019-04-30T19:44:59.789Z,13.70
2019-04-30T19:47:23.994Z,13.70
2019-04-30T19:49:54.249Z,13.70
2019-04-30T19:52:24.554Z,13.50
2019-04-30T19:54:54.882Z,13.60
2019-04-30T19:57:25.366Z,13.60
2019-04-30T19:59:55.661Z,13.60
2019-04-30T20:02:25.835Z,13.60
2019-04-30T20:04:55.798Z,13.50
2019-04-30T20:07:25.755Z,13.40
2019-04-30T20:10:03.323Z,13.40
2019-04-30T20:12:29.049Z,13.30
2019-04-30T20:15:00.563Z,13.30
2019-04-30T20:17:30.643Z,13.20
2019-04-30T20:20:00.788Z,13.20
2019-04-30T20:22:30.737Z,13.20
2019-04-30T20:25:00.480Z,13.10
2019-04-30T20:27:30.505Z,13.10
2019-04-30T20:30:00.355Z,13.00
2019-04-30T20:32:36.151Z,13.00
2019-04-30T20:35:02.117Z,12.90
2019-04-30T20:37:31.952Z,12.80
2019-04-30T20:40:03.696Z,12.80
2019-04-30T20:42:33.695Z,12.70
2019-04-30T20:45:04.307Z,12.60
2019-04-30T20:47:34.525Z,12.60
2019-04-30T20:50:04.584Z,12.50
2019-04-30T20:52:34.357Z,12.50
2019-04-30T20:55:04.626Z,12.40
2019-04-30T20:57:34.568Z,12.40
2019-04-30T21:00:06.417Z,12.30
2019-04-30T21:02:36.171Z,12.20
2019-04-30T21:05:06.860Z,12.20
2019-04-30T21:07:36.676Z,12.10
2019-04-30T21:10:09.990Z,12.00
2019-04-30T21:12:39.697Z,12.00
2019-04-30T21:15:09.771Z,12.00
2019-04-30T21:17:39.888Z,11.90
2019-04-30T21:20:11.053Z,12.00
2019-04-30T21:22:41.123Z,11.90
2019-04-30T21:25:12.430Z,11.90
2019-04-30T21:27:42.492Z,11.80
2019-04-30T21:30:13.201Z,11.70
2019-04-30T21:32:56.954Z,11.70
2019-04-30T21:35:26.827Z,11.70
2019-04-30T21:37:59.028Z,11.70
2019-04-30T21:40:29.736Z,11.70
2019-04-30T21:42:59.746Z,11.60
2019-04-30T21:45:31.533Z,11.60
2019-04-30T21:48:01.494Z,11.60
2019-04-30T21:50:31.185Z,11.60
2019-04-30T21:53:00.866Z,11.50
2019-04-30T21:55:30.613Z,11.50
2019-04-30T21:58:00.538Z,11.50
2019-04-30T22:00:40.013Z,11.40
2019-04-30T22:03:09.832Z,11.30
2019-04-30T22:05:39.819Z,11.30
2019-04-30T22:08:09.471Z,11.30
2019-04-30T22:10:39.345Z,11.30
2019-04-30T22:13:09.028Z,11.20
2019-04-30T22:15:38.824Z,11.20
2019-04-30T22:18:08.405Z,11.10
2019-04-30T22:20:38.858Z,11.10
2019-04-30T22:23:08.692Z,11.00
2019-04-30T22:25:39.268Z,11.00
2019-04-30T22:28:08.951Z,10.90
2019-04-30T22:30:38.674Z,10.90
2019-04-30T22:33:08.902Z,10.90
2019-04-30T22:35:57.919Z,10.80
2019-04-30T22:38:45.214Z,10.70
2019-04-30T22:41:14.918Z,10.70
2019-04-30T22:43:44.627Z,10.60
2019-04-30T22:46:16.154Z,10.60
2019-04-30T22:48:45.852Z,10.50
2019-04-30T22:51:15.624Z,10.50
2019-04-30T22:53:45.184Z,10.50
2019-04-30T22:56:14.980Z,10.50
2019-04-30T22:58:44.642Z,10.50
2019-04-30T23:01:16.792Z,10.50
2019-04-30T23:03:46.875Z,10.40
2019-04-30T23:06:16.795Z,10.30
2019-04-30T23:08:46.376Z,10.30
2019-04-30T23:11:16.200Z,10.30
2019-04-30T23:13:45.844Z,10.30
2019-04-30T23:16:15.959Z,10.30
2019-04-30T23:18:45.753Z,10.20
2019-04-30T23:21:15.415Z,10.20
2019-04-30T23:23:45.194Z,10.20
2019-04-30T23:26:14.914Z,10.20
2019-04-30T23:28:44.594Z,10.20
2019-04-30T23:31:14.292Z,10.10
2019-04-30T23:33:44.012Z,10.10
2019-04-30T23:36:13.895Z,10.00
2019-04-30T23:38:43.599Z,10.00
2019-04-30T23:41:13.220Z,10.00
2019-04-30T23:43:43.104Z,9.90
2019-04-30T23:46:12.758Z,9.90
2019-04-30T23:48:42.450Z,9.90
2019-04-30T23:51:12.031Z,9.90
2019-04-30T23:53:41.618Z,9.80
2019-04-30T23:56:11.464Z,9.70
2019-04-30T23:58:41.495Z,9.60
